Time;durP1;ratioP1;P1;durP2;ratioP2;P2;SDS_P1;SDS_P2;PMS_P1;PMS_P2;Temp;Humidity;BMP_temperature;BMP_pressure;BME280_temperature;BME280_humidity;BME280_pressure;Samples;Min_cycle;Max_cycle;Signal;HPM_P1;HPM_P2
2022/09/04 00:01:30;;;;;;;2.85;2.13;;;13.00;99.90;;;;;;5098884;28;20204;-85
2022/09/04 00:04:07;;;;;;;3.83;1.90;;;13.10;99.90;;;;;;5095622;28;20198;-85
2022/09/04 00:06:42;;;;;;;2.45;1.73;;;13.10;99.90;;;;;;5095636;28;20204;-85
2022/09/04 00:09:16;;;;;;;4.68;1.90;;;13.00;99.90;;;;;;5097842;28;20275;-85
2022/09/04 00:11:49;;;;;;;2.35;1.92;;;12.90;99.90;;;;;;5087422;28;20288;-85
2022/09/04 00:14:20;;;;;;;5.93;1.88;;;12.90;99.90;;;;;;5097408;28;20206;-86
2022/09/04 00:16:53;;;;;;;1.98;1.45;;;13.00;99.90;;;;;;5091830;28;20246;-86
2022/09/04 00:19:43;;;;;;;2.17;1.73;;;13.00;99.90;;;;;;5093886;28;20196;-85
2022/09/04 00:22:27;;;;;;;2.28;1.60;;;12.90;99.90;;;;;;5094340;28;20196;-85
2022/09/04 00:25:00;;;;;;;3.05;2.05;;;12.80;99.90;;;;;;5099676;28;20192;-85
2022/09/04 00:27:31;;;;;;;4.70;1.80;;;12.80;99.90;;;;;;5098744;28;20576;-85
2022/09/04 00:30:05;;;;;;;3.03;1.63;;;12.70;99.90;;;;;;5100069;28;20188;-86
2022/09/04 00:32:40;;;;;;;2.35;1.50;;;12.90;99.90;;;;;;5099689;28;20564;-85
2022/09/04 00:35:13;;;;;;;2.08;1.80;;;12.90;99.90;;;;;;5097211;28;20200;-85
2022/09/04 00:37:46;;;;;;;2.10;1.90;;;13.00;99.90;;;;;;5098314;28;20224;-85
2022/09/04 00:40:19;;;;;;;4.78;1.55;;;13.10;99.90;;;;;;5099415;28;20188;-85
2022/09/04 00:43:26;;;;;;;2.30;1.80;;;13.10;99.90;;;;;;5090147;28;20199;-85
2022/09/04 00:46:25;;;;;;;2.65;1.73;;;13.10;99.90;;;;;;5029840;28;20210;-85
2022/09/04 00:49:22;;;;;;;2.05;1.88;;;13.10;99.90;;;;;;4990351;28;20204;-85
2022/09/04 00:52:02;;;;;;;3.25;1.50;;;13.00;99.90;;;;;;5000106;28;20192;-86
2022/09/04 00:54:54;;;;;;;1.67;1.52;;;13.00;99.90;;;;;;4996752;28;20199;-85
2022/09/04 00:58:06;;;;;;;4.03;1.88;;;13.00;99.90;;;;;;4997930;28;20220;-85
2022/09/04 01:00:46;;;;;;;3.10;1.70;;;12.90;99.90;;;;;;4939312;29;20618;-85
2022/09/04 01:03:31;;;;;;;1.88;1.70;;;12.90;99.90;;;;;;4935099;29;20205;-85
2022/09/04 01:06:18;;;;;;;1.70;1.60;;;13.00;99.90;;;;;;4942615;29;20309;-85
2022/09/04 01:09:01;;;;;;;2.33;1.50;;;13.00;99.90;;;;;;4935808;29;20206;-85
2022/09/04 01:11:40;;;;;;;2.63;1.50;;;13.10;99.90;;;;;;4940430;29;20212;-85
2022/09/04 01:14:14;;;;;;;2.17;1.80;;;13.10;99.90;;;;;;4937193;29;20286;-85
2022/09/04 01:16:46;;;;;;;2.15;1.45;;;13.10;99.90;;;;;;4941551;29;20714;-85
2022/09/04 01:19:28;;;;;;;1.80;1.50;;;13.10;99.90;;;;;;4938393;29;20206;-86
2022/09/04 01:22:15;;;;;;;1.67;1.42;;;13.10;99.90;;;;;;4939811;29;20209;-85
2022/09/04 01:24:59;;;;;;;2.35;1.83;;;13.20;99.90;;;;;;4956498;28;20209;-86
2022/09/04 01:27:40;;;;;;;2.95;1.60;;;13.30;99.90;;;;;;5010935;28;20501;-85
2022/09/04 01:30:10;;;;;;;1.80;1.38;;;13.40;99.90;;;;;;5022065;28;20211;-86
2022/09/04 01:32:53;;;;;;;3.83;1.60;;;13.30;99.90;;;;;;5018252;28;20218;-86
2022/09/04 01:35:30;;;;;;;2.33;1.40;;;13.40;99.90;;;;;;5072080;28;20192;-85
2022/09/04 01:38:06;;;;;;;1.83;1.70;;;13.40;99.90;;;;;;5096675;28;20227;-86
2022/09/04 01:40:40;;;;;;;1.75;1.52;;;13.50;99.90;;;;;;5099585;28;20211;-85
2022/09/04 01:43:17;;;;;;;3.85;1.80;;;13.50;99.90;;;;;;5094068;28;20196;-85
2022/09/04 01:46:19;;;;;;;1.42;1.33;;;13.50;99.90;;;;;;5096551;28;20283;-86
2022/09/04 01:48:52;;;;;;;4.05;1.77;;;13.50;99.90;;;;;;5096838;28;20200;-86
2022/09/04 01:51:26;;;;;;;1.85;1.45;;;13.50;99.90;;;;;;5089820;28;20201;-85
2022/09/04 01:54:21;;;;;;;2.58;1.42;;;13.50;99.90;;;;;;5092027;28;20226;-86
2022/09/04 01:56:57;;;;;;;3.10;1.60;;;13.40;99.90;;;;;;5094539;28;20238;-86
2022/09/04 01:59:29;;;;;;;1.40;1.30;;;13.40;99.90;;;;;;5090461;28;20215;-86
2022/09/04 02:02:01;;;;;;;3.00;1.60;;;13.40;99.90;;;;;;5093108;28;20551;-86
2022/09/04 02:04:34;;;;;;;4.05;1.58;;;13.50;99.90;;;;;;5095802;28;20683;-86
2022/09/04 02:07:19;;;;;;;2.45;1.50;;;13.50;99.90;;;;;;5093619;28;20204;-86
2022/09/04 02:09:57;;;;;;;2.35;1.60;;;13.50;99.90;;;;;;5090141;28;20204;-86
2022/09/04 02:12:34;;;;;;;2.08;1.90;;;13.40;99.90;;;;;;5093882;28;20247;-85
2022/09/04 02:15:11;;;;;;;1.77;1.40;;;13.50;99.90;;;;;;5092320;28;20204;-86
2022/09/04 02:17:43;;;;;;;1.70;1.48;;;13.50;99.90;;;;;;5095829;28;20227;-86
2022/09/04 02:20:20;;;;;;;1.77;1.40;;;13.40;99.90;;;;;;5100531;28;20233;-85
2022/09/04 02:22:59;;;;;;;1.65;1.55;;;13.30;99.90;;;;;;5095234;28;20632;-86
2022/09/04 02:25:36;;;;;;;4.07;1.50;;;13.30;99.90;;;;;;5090447;28;20213;-86
2022/09/04 02:28:17;;;;;;;1.50;1.40;;;13.20;99.90;;;;;;5087385;28;20216;-85
2022/09/04 02:30:55;;;;;;;4.57;1.60;;;13.30;99.90;;;;;;5096532;28;20202;-86
2022/09/04 02:33:28;;;;;;;1.88;1.70;;;13.20;99.90;;;;;;5098728;28;20709;-86
2022/09/04 02:36:03;;;;;;;3.38;1.30;;;13.20;99.90;;;;;;5095428;28;20197;-86
2022/09/04 02:38:38;;;;;;;2.60;1.70;;;13.20;99.90;;;;;;5095900;28;20309;-85
2022/09/04 02:41:13;;;;;;;2.90;1.58;;;13.20;99.90;;;;;;5097972;28;20188;-85
2022/09/04 02:43:58;;;;;;;2.28;1.60;;;13.20;99.90;;;;;;5096849;28;20219;-86
2022/09/04 02:46:40;;;;;;;1.70;1.60;;;13.40;99.90;;;;;;5095213;28;20204;-85
2022/09/04 02:49:14;;;;;;;1.70;1.40;;;13.30;99.90;;;;;;5097641;28;20674;-86
2022/09/04 02:51:54;;;;;;;1.55;1.45;;;13.30;99.90;;;;;;5095124;28;20196;-86
2022/09/04 02:54:36;;;;;;;2.55;1.35;;;13.20;99.90;;;;;;5089515;28;20208;-86
2022/09/04 02:57:23;;;;;;;1.83;1.50;;;13.30;99.90;;;;;;5096136;28;20224;-86
2022/09/04 03:00:03;;;;;;;2.00;1.30;;;13.20;99.90;;;;;;5092771;28;20192;-86
2022/09/04 03:02:37;;;;;;;2.22;1.50;;;13.20;99.90;;;;;;5094827;28;20200;-86
2022/09/04 03:05:12;;;;;;;4.10;1.63;;;13.10;99.90;;;;;;5097110;28;20197;-86
2022/09/04 03:07:43;;;;;;;2.13;1.48;;;13.10;99.90;;;;;;5096623;28;20204;-86
2022/09/04 03:10:15;;;;;;;1.67;1.45;;;13.20;99.90;;;;;;5093579;28;20647;-86
2022/09/04 03:12:48;;;;;;;1.67;1.58;;;13.30;99.90;;;;;;5096308;28;20196;-86
2022/09/04 03:15:23;;;;;;;3.22;1.50;;;13.30;99.90;;;;;;5095058;28;20564;-86
2022/09/04 03:18:01;;;;;;;2.03;1.60;;;13.20;99.90;;;;;;5095524;28;20654;-85
2022/09/04 03:20:30;;;;;;;2.42;1.80;;;13.30;99.90;;;;;;5097060;28;20199;-85
2022/09/04 03:23:01;;;;;;;1.67;1.50;;;13.10;99.90;;;;;;5091197;28;20200;-85
2022/09/04 03:26:00;;;;;;;3.75;1.70;;;13.00;99.90;;;;;;5096930;28;20230;-85
2022/09/04 03:28:38;;;;;;;2.88;1.58;;;12.90;99.90;;;;;;5017553;28;20211;-85
2022/09/04 03:31:18;;;;;;;2.60;1.50;;;12.90;99.90;;;;;;5008578;28;20191;-85
2022/09/04 03:33:55;;;;;;;1.70;1.60;;;12.90;99.90;;;;;;5014923;28;20276;-85
2022/09/04 03:36:28;;;;;;;2.15;1.73;;;12.90;99.90;;;;;;5017865;28;20226;-85
2022/09/04 03:39:03;;;;;;;1.80;1.60;;;13.00;99.90;;;;;;5017297;28;20253;-86
2022/09/04 03:41:41;;;;;;;2.65;1.77;;;13.00;99.90;;;;;;5026413;28;20202;-85
2022/09/04 03:44:32;;;;;;;3.90;1.92;;;13.00;99.90;;;;;;5021003;28;20214;-85
2022/09/04 03:47:08;;;;;;;1.80;1.70;;;13.00;99.90;;;;;;5024508;28;20628;-85
2022/09/04 03:49:50;;;;;;;1.70;1.45;;;13.00;99.90;;;;;;5016772;28;20216;-85
2022/09/04 03:52:24;;;;;;;2.10;1.88;;;13.10;99.90;;;;;;5016780;28;20214;-85
2022/09/04 03:55:21;;;;;;;3.28;1.90;;;12.90;99.90;;;;;;5017276;28;20672;-85
2022/09/04 03:58:08;;;;;;;3.90;2.00;;;12.90;99.90;;;;;;5008668;28;20218;-85
2022/09/04 04:00:45;;;;;;;1.60;1.50;;;12.80;99.90;;;;;;5005717;28;20221;-85
2022/09/04 04:03:30;;;;;;;2.33;1.77;;;12.80;99.90;;;;;;5020842;28;20235;-85
2022/09/04 04:06:13;;;;;;;2.35;1.75;;;12.90;99.90;;;;;;5065872;28;20239;-86
2022/09/04 04:09:10;;;;;;;1.75;1.65;;;13.00;99.90;;;;;;5094452;28;20193;-85
2022/09/04 04:12:00;;;;;;;2.08;1.60;;;13.00;99.90;;;;;;5088846;28;20197;-86
2022/09/04 04:14:44;;;;;;;1.67;1.58;;;12.90;99.90;;;;;;5017105;28;20203;-85
2022/09/04 04:17:37;;;;;;;1.80;1.70;;;12.90;99.90;;;;;;5019228;28;20195;-85
2022/09/04 04:20:16;;;;;;;2.13;1.70;;;13.00;99.90;;;;;;5018170;28;20214;-85
2022/09/04 04:22:59;;;;;;;2.70;1.73;;;13.00;99.90;;;;;;5012651;28;20203;-85
2022/09/04 04:25:47;;;;;;;1.92;1.73;;;13.10;99.90;;;;;;5013222;28;20195;-85
2022/09/04 04:28:36;;;;;;;2.67;1.60;;;13.20;99.90;;;;;;5016304;28;20762;-85
2022/09/04 04:31:15;;;;;;;1.77;1.67;;;13.30;99.90;;;;;;5019065;28;20207;-86
2022/09/04 04:33:57;;;;;;;2.03;1.83;;;13.10;99.90;;;;;;5023851;28;20195;-85
2022/09/04 04:36:32;;;;;;;1.92;1.70;;;13.00;99.90;;;;;;5011464;28;20203;-85
2022/09/04 04:39:12;;;;;;;2.25;1.80;;;12.90;99.90;;;;;;5011270;28;20258;-86
2022/09/04 04:42:06;;;;;;;2.53;1.67;;;12.90;99.90;;;;;;5020504;28;20207;-86
2022/09/04 04:48:27;;;;;;;3.67;1.80;;;13.10;99.90;;;;;;4989005;28;20356;-85
2022/09/04 04:51:04;;;;;;;1.70;1.60;;;13.20;99.90;;;;;;4922872;28;20205;-86
2022/09/04 04:53:36;;;;;;;2.50;1.60;;;13.20;99.90;;;;;;4960784;28;20232;-85
2022/09/04 04:56:13;;;;;;;2.03;1.75;;;13.30;99.90;;;;;;4948938;28;20595;-86
2022/09/04 04:58:58;;;;;;;2.38;1.55;;;13.40;99.90;;;;;;4952095;28;20224;-86
2022/09/04 05:01:41;;;;;;;1.70;1.60;;;13.40;99.90;;;;;;4957648;28;20885;-86
2022/09/04 05:04:28;;;;;;;2.25;1.80;;;13.50;99.90;;;;;;4963559;28;20208;-85
2022/09/04 05:07:02;;;;;;;1.58;1.45;;;13.50;99.90;;;;;;4967732;28;20236;-85
2022/09/04 05:09:39;;;;;;;1.92;1.60;;;13.50;99.90;;;;;;4960427;28;20209;-85
2022/09/04 05:12:15;;;;;;;7.03;1.65;;;13.50;99.90;;;;;;4953665;29;20224;-86
2022/09/04 05:14:50;;;;;;;2.05;1.83;;;13.40;99.90;;;;;;4960530;28;20720;-86
2022/09/04 05:17:32;;;;;;;2.50;1.75;;;13.40;99.90;;;;;;4958837;28;20244;-86
2022/09/04 05:20:20;;;;;;;2.13;1.70;;;13.40;99.90;;;;;;4960345;28;20240;-85
2022/09/04 05:22:59;;;;;;;2.13;1.60;;;13.40;99.90;;;;;;4964103;28;20198;-86
2022/09/04 05:25:36;;;;;;;5.22;1.70;;;13.30;99.90;;;;;;5011265;28;20685;-85
2022/09/04 05:28:23;;;;;;;2.05;1.73;;;13.30;99.90;;;;;;5088429;28;20219;-85
2022/09/04 05:30:56;;;;;;;4.22;1.88;;;13.20;99.90;;;;;;5098340;28;20558;-85
2022/09/04 05:33:35;;;;;;;2.10;1.77;;;13.10;99.90;;;;;;5098493;28;20205;-86
2022/09/04 05:36:12;;;;;;;3.20;1.80;;;13.10;99.90;;;;;;5098501;28;20203;-86
2022/09/04 05:39:02;;;;;;;1.75;1.65;;;13.10;99.90;;;;;;5085730;28;20235;-86
2022/09/04 05:41:39;;;;;;;1.90;1.80;;;13.20;99.90;;;;;;5096830;28;20203;-86
2022/09/04 05:44:31;;;;;;;1.70;1.60;;;13.20;99.90;;;;;;5098265;28;20216;-86
2022/09/04 05:47:13;;;;;;;2.15;1.90;;;13.20;99.90;;;;;;5092079;28;20196;-86
2022/09/04 05:50:04;;;;;;;1.70;1.60;;;13.30;99.90;;;;;;5096406;28;20196;-85
2022/09/04 05:52:58;;;;;;;1.95;1.85;;;13.40;99.90;;;;;;5096670;28;20600;-87
2022/09/04 05:55:54;;;;;;;3.42;1.90;;;13.50;99.90;;;;;;5094963;28;20238;-86
2022/09/04 05:58:33;;;;;;;2.10;1.90;;;13.60;99.90;;;;;;5032559;28;20926;-86
2022/09/04 06:01:13;;;;;;;1.80;1.70;;;13.60;99.90;;;;;;5042892;28;20580;-86
2022/09/04 06:04:12;;;;;;;5.65;2.00;;;13.70;99.90;;;;;;5032416;28;20202;-86
2022/09/04 06:06:47;;;;;;;3.47;2.00;;;13.70;99.90;;;;;;5026735;28;20222;-86
2022/09/04 06:09:28;;;;;;;2.08;1.85;;;13.80;99.90;;;;;;5035860;28;20661;-86
2022/09/04 06:12:12;;;;;;;2.17;2.05;;;13.90;99.90;;;;;;5025632;28;20214;-86
2022/09/04 06:15:11;;;;;;;4.45;1.90;;;14.00;99.90;;;;;;5035651;28;20221;-86
2022/09/04 06:18:08;;;;;;;1.98;1.88;;;14.10;99.90;;;;;;5033329;28;20199;-86
2022/09/04 06:20:52;;;;;;;2.85;2.00;;;14.20;99.90;;;;;;5033715;28;20214;-86
2022/09/04 06:23:49;;;;;;;4.50;2.15;;;14.40;99.90;;;;;;5035244;28;20593;-86
2022/09/04 06:26:31;;;;;;;2.20;2.00;;;14.40;99.90;;;;;;5025874;28;20231;-86
2022/09/04 06:29:25;;;;;;;1.90;1.80;;;14.50;99.90;;;;;;5031890;28;20275;-86
2022/09/04 06:32:12;;;;;;;2.25;2.15;;;14.70;99.90;;;;;;5033052;28;20207;-86
2022/09/04 06:35:00;;;;;;;2.50;2.15;;;14.80;99.90;;;;;;5044553;28;20215;-87
2022/09/04 06:37:41;;;;;;;3.28;2.55;;;14.90;99.90;;;;;;5086184;28;20205;-86
2022/09/04 06:40:31;;;;;;;2.28;2.08;;;14.90;99.90;;;;;;5094891;28;20283;-86
2022/09/04 06:43:11;;;;;;;2.53;1.65;;;15.00;99.90;;;;;;5090106;28;20664;-86
2022/09/04 06:45:48;;;;;;;2.15;1.73;;;15.20;99.90;;;;;;5078076;28;20225;-86
2022/09/04 06:48:27;;;;;;;2.60;1.90;;;15.30;99.90;;;;;;5090945;28;20585;-86
2022/09/04 06:51:09;;;;;;;4.00;1.80;;;15.40;99.90;;;;;;5096112;28;20301;-86
2022/09/04 06:53:44;;;;;;;2.00;1.80;;;15.50;99.90;;;;;;5094612;28;20707;-87
2022/09/04 06:56:32;;;;;;;3.33;1.80;;;15.60;99.90;;;;;;5095085;28;20203;-86
2022/09/04 06:59:36;;;;;;;1.73;1.50;;;15.70;99.90;;;;;;5093224;28;20225;-86
2022/09/04 07:02:18;;;;;;;4.70;1.80;;;15.80;99.90;;;;;;5089108;28;20200;-86
2022/09/04 07:04:56;;;;;;;1.80;1.60;;;15.80;99.90;;;;;;5094239;28;20204;-86
2022/09/04 07:07:36;;;;;;;1.80;1.70;;;15.90;99.90;;;;;;5093123;28;20215;-86
2022/09/04 07:10:09;;;;;;;2.08;1.63;;;16.00;99.90;;;;;;5093067;28;20211;-86
2022/09/04 07:12:53;;;;;;;2.70;1.65;;;16.00;99.90;;;;;;5093290;28;20200;-87
2022/09/04 07:15:55;;;;;;;2.05;1.92;;;16.20;99.90;;;;;;5085984;28;20209;-87
2022/09/04 07:18:57;;;;;;;2.72;1.80;;;16.30;99.90;;;;;;5089162;28;20224;-87
2022/09/04 07:21:32;;;;;;;2.00;1.70;;;16.40;99.90;;;;;;5092551;28;20200;-86
2022/09/04 07:24:06;;;;;;;2.13;1.65;;;16.40;99.90;;;;;;5097966;28;20195;-86
2022/09/04 07:26:39;;;;;;;3.72;1.75;;;16.50;99.90;;;;;;5090507;28;20203;-87
2022/09/04 07:29:20;;;;;;;3.25;2.45;;;16.60;99.90;;;;;;5083399;28;20208;-87
2022/09/04 07:31:54;;;;;;;4.75;1.67;;;16.80;99.90;;;;;;5092281;28;20703;-87
2022/09/04 07:34:27;;;;;;;1.67;1.40;;;17.20;99.90;;;;;;5092865;28;20203;-87
2022/09/04 07:37:01;;;;;;;2.00;1.73;;;17.40;99.20;;;;;;5086059;28;20651;-87
2022/09/04 07:39:38;;;;;;;2.65;1.70;;;17.60;98.50;;;;;;5091813;28;20223;-87
2022/09/04 07:42:13;;;;;;;2.05;1.80;;;17.60;98.00;;;;;;5091140;28;20204;-87
2022/09/04 07:44:48;;;;;;;1.83;1.50;;;17.60;97.50;;;;;;5089604;28;20220;-87
2022/09/04 07:47:20;;;;;;;2.70;1.70;;;17.60;98.00;;;;;;5088542;28;20655;-87
2022/09/04 07:49:58;;;;;;;1.80;1.70;;;17.60;98.10;;;;;;5087054;28;20201;-86
2022/09/04 07:52:44;;;;;;;1.95;1.75;;;17.70;98.20;;;;;;5089110;28;20204;-87
2022/09/04 07:55:23;;;;;;;2.10;1.60;;;17.70;97.90;;;;;;5082975;28;20216;-87
2022/09/04 07:58:18;;;;;;;5.07;2.13;;;17.80;98.30;;;;;;5084379;28;20200;-87
2022/09/04 08:00:57;;;;;;;2.85;1.77;;;17.90;98.30;;;;;;5092083;28;20204;-87
2022/09/04 08:03:48;;;;;;;2.03;1.83;;;18.00;98.40;;;;;;5086508;28;20208;-87
2022/09/04 08:06:21;;;;;;;2.67;2.33;;;18.00;98.60;;;;;;5094302;28;20208;-88
2022/09/04 08:09:27;;;;;;;2.17;1.92;;;18.10;98.30;;;;;;5086463;28;20236;-84
2022/09/04 08:12:22;;;;;;;3.05;2.30;;;18.20;98.50;;;;;;5088432;28;20204;-88
2022/09/04 08:14:54;;;;;;;2.50;2.20;;;18.30;98.00;;;;;;5084242;28;20188;-86
2022/09/04 08:17:53;;;;;;;2.08;1.90;;;18.40;98.00;;;;;;5090753;28;20207;-87
2022/09/04 08:20:40;;;;;;;4.47;2.25;;;18.40;97.70;;;;;;5086633;28;20220;-88
2022/09/04 08:23:33;;;;;;;4.47;2.20;;;18.60;96.20;;;;;;5092545;28;20201;-88
2022/09/04 08:26:13;;;;;;;2.47;2.15;;;18.70;95.90;;;;;;5089347;28;20208;-87
2022/09/04 08:28:59;;;;;;;2.55;1.90;;;18.80;96.30;;;;;;5090841;28;20628;-88
2022/09/04 08:31:30;;;;;;;2.00;1.90;;;18.90;95.90;;;;;;5086173;28;20204;-89
2022/09/04 08:34:33;;;;;;;2.35;2.15;;;19.00;95.20;;;;;;5092321;28;20211;-86
2022/09/04 08:37:14;;;;;;;3.53;2.47;;;19.20;95.60;;;;;;5092267;28;20655;-86
2022/09/04 08:39:50;;;;;;;4.32;2.47;;;19.20;94.90;;;;;;5092242;28;20231;-89
2022/09/04 08:42:44;;;;;;;2.60;2.40;;;19.30;94.50;;;;;;5098864;28;20196;-89
2022/09/04 08:46:12;;;;;;;2.33;2.13;;;19.40;94.70;;;;;;5098018;28;20217;-86
2022/09/04 08:49:18;;;;;;;2.55;2.10;;;19.60;94.10;;;;;;4974948;28;20274;-87
2022/09/04 08:52:19;;;;;;;2.67;2.38;;;19.70;94.00;;;;;;4995726;28;20298;-87
2022/09/04 08:55:16;;;;;;;2.22;2.13;;;19.90;93.00;;;;;;5010489;28;20269;-87
2022/09/04 08:58:10;;;;;;;2.95;2.70;;;20.00;93.10;;;;;;5010682;28;20210;-87
2022/09/04 09:00:50;;;;;;;2.53;2.33;;;20.20;92.70;;;;;;5007270;28;20224;-85
2022/09/04 09:03:45;;;;;;;2.58;2.38;;;20.30;90.00;;;;;;5006192;28;20298;-86
2022/09/04 09:06:52;;;;;;;2.88;2.50;;;20.70;91.30;;;;;;4922644;29;20563;-84
2022/09/04 09:09:53;;;;;;;2.25;2.05;;;21.60;89.80;;;;;;4930428;29;20309;-86
2022/09/04 09:13:08;;;;;;;2.50;2.30;;;23.80;72.00;;;;;;4926976;29;20248;-85
2022/09/04 09:16:17;;;;;;;2.85;2.13;;;26.20;43.50;;;;;;4927796;29;20225;-85
2022/09/04 09:19:08;;;;;;;2.50;2.30;;;28.60;26.70;;;;;;4930738;29;20225;-84
2022/09/04 09:21:53;;;;;;;2.55;2.33;;;30.10;21.00;;;;;;4924644;29;20205;-87
2022/09/04 09:24:54;;;;;;;2.60;2.40;;;31.20;17.20;;;;;;4985284;28;20689;-84
2022/09/04 09:27:54;;;;;;;2.97;2.70;;;31.30;17.30;;;;;;4988677;28;20223;-84
2022/09/04 09:30:22;;;;;;;2.67;2.47;;;32.40;17.80;;;;;;4990387;28;20203;-84
2022/09/04 09:33:20;;;;;;;2.75;2.58;;;32.60;17.40;;;;;;4993014;28;20213;-88
2022/09/04 09:36:14;;;;;;;3.17;2.88;;;32.70;13.60;;;;;;4986932;28;20199;-84
2022/09/04 09:39:22;;;;;;;2.80;2.60;;;32.60;14.20;;;;;;4997799;28;20222;-84
2022/09/04 09:42:29;;;;;;;2.53;2.42;;;31.70;14.30;;;;;;4937731;29;20205;-86
2022/09/04 09:45:18;;;;;;;2.35;2.20;;;30.20;16.70;;;;;;5031022;28;20228;-84
2022/09/04 09:48:21;;;;;;;3.17;2.20;;;29.40;19.30;;;;;;5032006;28;20633;-84
2022/09/04 09:51:18;;;;;;;2.55;2.35;;;30.00;18.00;;;;;;5029219;28;20196;-84
2022/09/04 09:54:11;;;;;;;2.47;2.28;;;30.60;16.90;;;;;;5026752;28;20285;-90
2022/09/04 09:57:16;;;;;;;2.42;2.22;;;29.20;16.50;;;;;;4925342;29;20205;-85
2022/09/04 10:00:10;;;;;;;2.80;2.60;;;28.80;19.80;;;;;;4874123;29;20222;-84
2022/09/04 10:03:40;;;;;;;2.47;2.28;;;28.70;18.60;;;;;;4872763;29;20262;-84
2022/09/04 10:06:33;;;;;;;2.50;2.30;;;29.50;18.40;;;;;;4871806;29;20210;-85
2022/09/04 10:09:43;;;;;;;2.97;2.13;;;29.60;16.40;;;;;;4873185;29;20205;-85
2022/09/04 10:12:51;;;;;;;2.40;2.22;;;30.20;16.70;;;;;;4859955;29;20207;-85
2022/09/04 10:15:37;;;;;;;2.50;2.30;;;31.10;14.90;;;;;;4863176;29;20206;-84
2022/09/04 10:18:41;;;;;;;2.22;2.10;;;31.70;15.70;;;;;;4868629;29;20663;-85
2022/09/04 10:21:50;;;;;;;2.45;2.28;;;31.30;13.50;;;;;;4909296;29;22499;-85
2022/09/04 10:24:56;;;;;;;3.17;2.00;;;30.10;16.70;;;;;;4901546;29;20675;-84
2022/09/04 10:27:59;;;;;;;2.20;2.00;;;29.60;16.40;;;;;;4862055;29;20684;-84
2022/09/04 10:30:49;;;;;;;3.17;2.00;;;29.50;16.40;;;;;;4860668;29;20260;-85
2022/09/04 10:33:32;;;;;;;2.15;1.98;;;29.40;16.40;;;;;;4863955;29;20207;-85
2022/09/04 10:36:13;;;;;;;2.13;2.00;;;29.00;18.50;;;;;;4900234;29;20432;-85
2022/09/04 10:41:54;;;;;;;2.35;2.13;;;28.70;19.80;;;;;;4933556;29;20217;-85
2022/09/04 10:44:40;;;;;;;1.90;1.80;;;28.70;19.20;;;;;;4860004;29;20227;-85
2022/09/04 10:47:23;;;;;;;4.30;2.15;;;28.60;17.90;;;;;;4858756;29;20208;-85
2022/09/04 10:50:23;;;;;;;3.00;2.03;;;28.30;19.00;;;;;;4921195;29;20220;-85
2022/09/04 10:53:14;;;;;;;2.08;1.92;;;27.80;19.60;;;;;;4939411;29;20208;-85
2022/09/04 10:56:02;;;;;;;2.65;1.70;;;27.50;21.00;;;;;;4935711;29;20223;-85
2022/09/04 10:58:38;;;;;;;2.00;1.90;;;27.70;21.40;;;;;;4937038;29;20205;-85
2022/09/04 11:01:54;;;;;;;3.53;2.25;;;28.30;16.40;;;;;;4938200;29;20239;-85
2022/09/04 11:04:51;;;;;;;2.90;2.60;;;28.50;20.60;;;;;;4910261;29;20212;-85
2022/09/04 11:07:44;;;;;;;2.45;2.25;;;28.20;20.40;;;;;;4944739;28;20673;-85
2022/09/04 11:10:23;;;;;;;3.05;2.13;;;28.40;20.50;;;;;;4948988;29;20212;-85
2022/09/04 11:13:27;;;;;;;2.22;2.03;;;28.40;19.40;;;;;;4950760;29;20662;-85
2022/09/04 11:16:09;;;;;;;3.40;1.70;;;27.80;19.20;;;;;;4947850;29;20208;-84
2022/09/04 11:19:02;;;;;;;2.22;2.03;;;27.60;18.70;;;;;;4948030;28;20338;-85
2022/09/04 11:22:14;;;;;;;2.20;2.00;;;27.30;21.10;;;;;;4969799;28;20651;-85
2022/09/04 11:25:20;;;;;;;1.70;1.60;;;27.20;18.60;;;;;;5016659;28;20206;-84
2022/09/04 11:28:14;;;;;;;2.92;1.60;;;26.70;19.50;;;;;;4938933;28;20213;-83
2022/09/04 11:31:04;;;;;;;2.25;1.80;;;26.40;22.30;;;;;;4943697;28;20211;-84
2022/09/04 11:34:06;;;;;;;1.80;1.70;;;26.00;22.40;;;;;;4943355;28;20228;-85
2022/09/04 11:36:55;;;;;;;2.55;1.58;;;25.50;23.50;;;;;;4938511;28;20205;-85
2022/09/04 11:40:05;;;;;;;3.13;1.90;;;25.20;24.50;;;;;;4943114;28;20225;-85
2022/09/04 11:42:45;;;;;;;2.28;1.90;;;24.80;27.90;;;;;;4948486;28;20208;-83
2022/09/04 11:46:01;;;;;;;2.40;1.70;;;24.20;26.30;;;;;;4952489;28;20258;-83
2022/09/04 11:49:06;;;;;;;1.85;1.70;;;23.80;29.20;;;;;;4933311;28;20201;-81
2022/09/04 11:52:02;;;;;;;2.47;1.70;;;23.50;30.30;;;;;;4949390;28;20761;-81
2022/09/04 11:54:55;;;;;;;2.28;2.00;;;23.60;34.00;;;;;;4911556;29;20544;-83
2022/09/04 11:57:35;;;;;;;3.55;1.80;;;24.20;35.20;;;;;;4874196;29;20246;-82
2022/09/04 12:00:11;;;;;;;1.60;1.50;;;24.50;25.30;;;;;;4877582;29;20220;-83
2022/09/04 12:03:19;;;;;;;1.80;1.70;;;24.80;27.60;;;;;;4883504;29;20722;-83
2022/09/04 12:05:59;;;;;;;2.35;1.83;;;24.80;26.70;;;;;;4917049;29;20586;-83
2022/09/04 12:09:12;;;;;;;2.50;1.77;;;24.50;28.10;;;;;;4916305;29;20218;-83
2022/09/04 12:12:02;;;;;;;1.55;1.40;;;24.30;28.80;;;;;;4837764;29;20205;-83
2022/09/04 12:14:56;;;;;;;3.90;1.70;;;24.30;30.00;;;;;;4859849;29;20715;-83
2022/09/04 12:17:54;;;;;;;2.47;1.90;;;24.70;25.90;;;;;;4843492;29;20677;-82
2022/09/04 12:20:44;;;;;;;3.83;1.55;;;25.20;26.60;;;;;;4873903;29;20235;-83
2022/09/04 12:23:37;;;;;;;3.47;1.80;;;25.40;23.20;;;;;;4870725;29;20299;-82
2022/09/04 12:26:20;;;;;;;1.52;1.42;;;25.60;22.50;;;;;;4873719;29;20409;-82
2022/09/04 12:29:32;;;;;;;2.15;1.90;;;25.90;22.30;;;;;;4871472;29;20200;-83
2022/09/04 12:32:42;;;;;;;1.65;1.55;;;26.00;22.10;;;;;;4929241;29;20205;-84
2022/09/04 12:35:55;;;;;;;1.77;1.67;;;26.20;21.70;;;;;;4951935;28;20201;-83
2022/09/04 12:38:45;;;;;;;1.92;1.75;;;26.10;20.00;;;;;;4965815;28;20264;-83
2022/09/04 12:41:17;;;;;;;2.83;1.73;;;26.20;20.30;;;;;;4961181;28;20216;-82
2022/09/04 12:44:00;;;;;;;2.50;1.90;;;26.00;20.50;;;;;;4963417;28;20712;-82
2022/09/04 12:46:49;;;;;;;2.58;2.00;;;26.00;22.80;;;;;;4963087;28;20212;-81
2022/09/04 12:49:41;;;;;;;1.70;1.60;;;26.00;22.40;;;;;;5023110;28;20669;-81
2022/09/04 12:52:40;;;;;;;3.95;1.60;;;26.30;20.60;;;;;;5056108;28;20206;-81
2022/09/04 12:55:15;;;;;;;3.97;1.80;;;26.40;20.00;;;;;;5053766;28;20201;-82
2022/09/04 12:57:54;;;;;;;2.28;1.70;;;26.50;19.10;;;;;;5057226;28;20205;-83
2022/09/04 13:00:25;;;;;;;1.80;1.70;;;26.40;20.70;;;;;;5053962;28;20228;-82
2022/09/04 13:03:04;;;;;;;3.45;1.90;;;26.10;20.60;;;;;;5053427;28;20190;-83
2022/09/04 13:05:45;;;;;;;1.95;1.85;;;25.70;22.50;;;;;;5053060;28;20201;-83
2022/09/04 13:08:22;;;;;;;3.53;1.83;;;25.40;23.10;;;;;;5057017;28;20292;-80
2022/09/04 13:11:00;;;;;;;2.10;1.90;;;25.00;24.10;;;;;;5049794;28;20208;-80
2022/09/04 13:13:35;;;;;;;2.13;1.80;;;24.70;24.20;;;;;;5099828;28;20203;-80
2022/09/04 13:16:09;;;;;;;3.55;1.63;;;24.40;26.60;;;;;;5100059;28;20212;-80
2022/09/04 13:18:48;;;;;;;3.08;1.70;;;24.20;25.80;;;;;;5088662;28;20648;-83
2022/09/04 13:21:25;;;;;;;1.90;1.70;;;24.30;25.40;;;;;;5102040;28;20327;-82
2022/09/04 13:24:12;;;;;;;2.17;1.88;;;24.30;26.30;;;;;;5099484;28;20192;-82
2022/09/04 13:26:59;;;;;;;2.45;1.58;;;24.10;27.50;;;;;;5098016;28;20724;-82
2022/09/04 13:29:34;;;;;;;1.88;1.77;;;23.80;25.40;;;;;;5099035;28;20249;-83
2022/09/04 13:32:30;;;;;;;1.60;1.50;;;23.50;28.00;;;;;;5098497;28;20200;-82
2022/09/04 13:35:11;;;;;;;3.10;2.08;;;23.40;30.20;;;;;;5098902;28;20193;-82
2022/09/04 13:38:08;;;;;;;2.45;1.73;;;23.40;28.70;;;;;;5097383;28;20196;-85
2022/09/04 13:40:54;;;;;;;3.08;1.75;;;23.20;28.60;;;;;;5093996;28;20212;-85
2022/09/04 13:43:41;;;;;;;1.65;1.50;;;23.10;27.50;;;;;;5098511;28;20226;-84
2022/09/04 13:46:18;;;;;;;1.98;1.65;;;23.00;28.80;;;;;;5099203;28;20209;-84
2022/09/04 13:48:50;;;;;;;1.70;1.60;;;22.90;29.20;;;;;;5096835;28;20199;-85
2022/09/04 13:51:21;;;;;;;1.60;1.42;;;22.90;30.50;;;;;;5098111;28;20247;-84
2022/09/04 13:54:01;;;;;;;3.28;1.83;;;23.00;30.40;;;;;;5100133;28;20223;-84
2022/09/04 13:56:34;;;;;;;6.10;2.13;;;23.20;29.20;;;;;;5094680;28;20201;-85
2022/09/04 13:59:07;;;;;;;1.85;1.60;;;23.10;30.70;;;;;;5098293;28;20242;-84
2022/09/04 14:01:44;;;;;;;3.20;1.80;;;23.00;32.80;;;;;;5096320;28;20216;-84
2022/09/04 14:04:16;;;;;;;2.28;1.73;;;23.00;32.40;;;;;;5089390;28;20212;-84
2022/09/04 14:06:44;;;;;;;1.60;1.50;;;23.20;29.30;;;;;;5099737;28;20201;-84
2022/09/04 14:09:11;;;;;;;1.77;1.52;;;23.50;27.20;;;;;;5110382;28;20212;-85
2022/09/04 14:12:19;;;;;;;3.20;1.70;;;24.00;25.20;;;;;;5116681;28;20207;-83
2022/09/04 14:15:31;;;;;;;1.85;1.60;;;24.10;25.10;;;;;;5108686;28;20185;-86
2022/09/04 14:18:15;;;;;;;1.95;1.42;;;23.90;24.50;;;;;;5101127;28;20192;-86
2022/09/04 14:20:56;;;;;;;2.75;2.20;;;23.70;26.30;;;;;;5087958;28;20212;-87
2022/09/04 14:23:44;;;;;;;1.73;1.63;;;23.70;26.00;;;;;;5094787;28;20205;-90
2022/09/04 14:26:23;;;;;;;1.85;1.50;;;23.90;23.50;;;;;;5093440;28;20205;-86
2022/09/04 14:29:03;;;;;;;1.45;1.35;;;24.00;23.60;;;;;;5088737;28;20291;-85